createdAt,value
2019-04-27T00:00:00.065Z,98.80
2019-04-27T00:02:43.532Z,98.80
2019-04-27T00:05:35.345Z,98.80
2019-04-27T00:08:24.002Z,98.80
2019-04-27T00:11:08.501Z,98.90
2019-04-27T00:13:40.715Z,99.00
2019-04-27T00:16:23.619Z,99.30
2019-04-27T00:19:13.575Z,99.10
2019-04-27T00:21:50.843Z,99.00
2019-04-27T00:24:23.518Z,99.00
2019-04-27T00:26:55.060Z,99.00
2019-04-27T00:29:26.763Z,98.90
2019-04-27T00:31:58.187Z,99.10
2019-04-27T00:34:29.547Z,99.20
2019-04-27T00:37:09.810Z,99.10
2019-04-27T00:39:50.183Z,99.10
2019-04-27T00:42:21.176Z,99.00
2019-04-27T00:44:54.104Z,99.00
2019-04-27T00:47:25.253Z,98.90
2019-04-27T00:49:56.640Z,98.80
2019-04-27T00:52:27.635Z,98.80
2019-04-27T00:54:58.807Z,98.70
2019-04-27T00:57:46.439Z,98.80
2019-04-27T01:00:37.705Z,98.80
2019-04-27T01:03:16.980Z,98.80
2019-04-27T01:05:47.979Z,98.80
2019-04-27T01:08:19.403Z,98.80
2019-04-27T01:10:50.734Z,98.70
2019-04-27T01:13:23.186Z,98.70
2019-04-27T01:15:54.340Z,98.70
2019-04-27T01:18:26.215Z,98.80
2019-04-27T01:20:57.135Z,98.70
2019-04-27T01:23:29.405Z,98.70
2019-04-27T01:26:14.843Z,98.60
2019-04-27T01:28:51.539Z,98.70
2019-04-27T01:31:23.047Z,98.80
2019-04-27T01:33:53.959Z,98.80
2019-04-27T01:36:25.243Z,98.80
2019-04-27T01:38:59.402Z,98.80
2019-04-27T01:41:32.068Z,98.70
2019-04-27T01:44:05.420Z,98.70
2019-04-27T01:46:37.534Z,98.80
2019-04-27T01:49:09.227Z,98.80
2019-04-27T01:51:40.287Z,98.80
2019-04-27T01:54:15.465Z,98.80
2019-04-27T01:56:46.595Z,98.80
2019-04-27T01:59:19.885Z,98.90
2019-04-27T02:02:04.532Z,99.00
2019-04-27T02:04:41.919Z,99.00
2019-04-27T02:07:13.279Z,99.10
2019-04-27T02:09:44.251Z,99.30
2019-04-27T02:12:19.179Z,99.30
2019-04-27T02:14:50.504Z,99.30
2019-04-27T02:17:21.659Z,99.40
2019-04-27T02:19:54.572Z,99.30
2019-04-27T02:22:26.876Z,99.20
2019-04-27T02:24:59.110Z,99.20
2019-04-27T02:27:32.175Z,99.30
2019-04-27T02:30:23.716Z,99.30
2019-04-27T02:33:13.058Z,99.20
2019-04-27T02:35:44.301Z,99.20
2019-04-27T02:38:15.452Z,99.20
2019-04-27T02:40:55.080Z,99.10
2019-04-27T02:43:45.480Z,99.10
2019-04-27T02:46:16.791Z,99.00
2019-04-27T02:48:58.988Z,99.10
2019-04-27T02:51:59.293Z,99.10
2019-04-27T02:54:30.038Z,99.20
2019-04-27T02:57:01.285Z,99.20
2019-04-27T02:59:32.581Z,99.60
2019-04-27T03:02:12.667Z,99.20
2019-04-27T03:04:43.790Z,99.30
2019-04-27T03:07:14.832Z,99.30
2019-04-27T03:09:45.713Z,99.30
2019-04-27T03:12:19.255Z,99.30
2019-04-27T03:15:10.253Z,99.40
2019-04-27T03:17:51.723Z,99.40
2019-04-27T03:20:36.163Z,99.60
2019-04-27T03:23:09.710Z,99.70
2019-04-27T03:26:01.259Z,99.60
2019-04-27T03:28:32.245Z,99.70
2019-04-27T03:31:03.344Z,99.60
2019-04-27T03:33:35.181Z,99.70
2019-04-27T03:36:12.456Z,99.70
2019-04-27T03:38:41.857Z,99.70
2019-04-27T03:41:13.140Z,99.70
2019-04-27T03:43:44.219Z,99.80
2019-04-27T03:46:15.438Z,99.80
2019-04-27T03:48:49.700Z,99.70
2019-04-27T03:51:43.167Z,99.80
2019-04-27T03:54:22.995Z,99.90
2019-04-27T03:57:13.788Z,99.90
2019-04-27T04:00:10.336Z,99.90
2019-04-27T04:02:41.724Z,99.90
2019-04-27T04:05:12.968Z,99.90
2019-04-27T04:07:43.936Z,99.90
2019-04-27T04:10:19.494Z,99.90
2019-04-27T04:13:10.789Z,99.90
2019-04-27T04:16:12.740Z,99.90
2019-04-27T04:18:57.348Z,99.90
2019-04-27T04:21:29.803Z,99.90
2019-04-27T04:24:01.461Z,99.90
2019-04-27T04:26:33.264Z,99.90
2019-04-27T04:29:04.427Z,99.90
2019-04-27T04:31:35.730Z,99.90
2019-04-27T04:34:11.561Z,99.90
2019-04-27T04:36:42.655Z,99.90
2019-04-27T04:39:12.961Z,99.90
2019-04-27T04:41:51.116Z,99.90
2019-04-27T04:44:41.587Z,99.90
2019-04-27T04:47:25.094Z,99.90
2019-04-27T04:50:08.457Z,99.90
2019-04-27T04:52:29.536Z,99.90
2019-04-27T04:55:02.726Z,99.90
2019-04-27T04:57:33.419Z,99.90
2019-04-27T05:00:05.595Z,99.90
2019-04-27T05:02:36.780Z,99.90
2019-04-27T05:05:09.358Z,99.90
2019-04-27T05:07:40.468Z,99.90
2019-04-27T05:10:11.697Z,99.90
2019-04-27T05:12:43.140Z,99.90
2019-04-27T05:15:15.484Z,99.90
2019-04-27T05:17:48.376Z,99.90
2019-04-27T05:20:44.995Z,99.90
2019-04-27T05:23:15.907Z,99.90
2019-04-27T05:25:49.038Z,99.90
2019-04-27T05:28:20.136Z,99.90
2019-04-27T05:30:51.253Z,99.90
2019-04-27T05:33:22.655Z,99.90
2019-04-27T05:35:53.781Z,99.90
2019-04-27T05:38:25.277Z,99.90
2019-04-27T05:40:56.423Z,99.90
2019-04-27T05:43:33.867Z,99.90
2019-04-27T05:46:58.835Z,99.90
2019-04-27T05:49:44.731Z,99.90
2019-04-27T05:52:30.081Z,99.90
2019-04-27T05:55:01.437Z,99.90
2019-04-27T05:57:32.575Z,99.90
2019-04-27T06:00:04.743Z,99.90
2019-04-27T06:02:35.963Z,99.90
2019-04-27T06:05:08.775Z,99.90
2019-04-27T06:07:40.155Z,99.90
2019-04-27T06:10:11.550Z,99.90
2019-04-27T06:12:43.043Z,99.90
2019-04-27T06:15:14.403Z,99.90
2019-04-27T06:17:45.608Z,99.90
2019-04-27T06:20:18.944Z,99.90
2019-04-27T06:22:52.280Z,99.90
2019-04-27T06:25:23.268Z,99.90
2019-04-27T06:27:54.708Z,99.90
2019-04-27T06:30:25.760Z,99.90
2019-04-27T06:32:56.754Z,99.90
2019-04-27T06:35:28.811Z,99.90
2019-04-27T06:38:01.361Z,99.90
2019-04-27T06:40:35.347Z,99.90
2019-04-27T06:43:05.523Z,99.90
2019-04-27T06:45:38.634Z,99.90
2019-04-27T06:48:09.730Z,99.90
2019-04-27T06:50:41.119Z,99.90
2019-04-27T06:53:12.510Z,99.90
2019-04-27T06:55:43.675Z,99.90
2019-04-27T06:58:14.823Z,99.90
2019-04-27T07:00:45.981Z,99.90
2019-04-27T07:03:18.775Z,99.90
2019-04-27T07:05:50.356Z,99.90
2019-04-27T07:08:21.746Z,99.90
2019-04-27T07:10:52.656Z,99.90
2019-04-27T07:13:23.558Z,99.90
2019-04-27T07:15:54.962Z,99.90
2019-04-27T07:18:25.871Z,99.90
2019-04-27T07:20:58.524Z,99.90
2019-04-27T07:23:29.711Z,99.90
2019-04-27T07:26:00.852Z,99.90
2019-04-27T07:28:31.987Z,99.90
2019-04-27T07:31:03.400Z,99.90
2019-04-27T07:33:34.570Z,99.90
2019-04-27T07:36:05.830Z,99.90
2019-04-27T07:38:36.720Z,99.90
2019-04-27T07:41:09.561Z,99.90
2019-04-27T07:43:49.399Z,99.90
2019-04-27T07:46:20.612Z,99.90
2019-04-27T07:48:51.755Z,99.90
2019-04-27T07:51:31.456Z,99.90
2019-04-27T07:53:58.864Z,99.90
2019-04-27T07:56:30.199Z,99.90
2019-04-27T07:59:01.378Z,99.90
2019-04-27T08:01:32.815Z,99.90
2019-04-27T08:04:03.996Z,99.90
2019-04-27T08:06:35.135Z,99.90
2019-04-27T08:09:06.754Z,99.90
2019-04-27T08:11:39.139Z,99.90
2019-04-27T08:14:10.292Z,99.90
2019-04-27T08:16:41.695Z,99.90
2019-04-27T08:19:12.836Z,99.90
2019-04-27T08:21:46.497Z,99.90
2019-04-27T08:24:16.681Z,99.90
2019-04-27T08:26:59.416Z,99.90
2019-04-27T08:29:39.397Z,99.90
2019-04-27T08:32:13.969Z,99.90
2019-04-27T08:34:44.877Z,99.90
2019-04-27T08:37:15.920Z,99.90
2019-04-27T08:39:46.827Z,99.90
2019-04-27T08:42:19.432Z,99.90
2019-04-27T08:44:51.037Z,99.90
2019-04-27T08:47:23.455Z,99.90
2019-04-27T08:49:54.611Z,99.90
2019-04-27T08:52:25.807Z,99.90
2019-04-27T08:54:56.943Z,99.90
2019-04-27T08:57:28.982Z,99.90
2019-04-27T09:00:00.119Z,99.90
2019-04-27T09:02:41.662Z,99.90
2019-04-27T09:05:04.704Z,99.90
2019-04-27T09:07:59.711Z,99.90
2019-04-27T09:10:42.920Z,99.90
2019-04-27T09:13:25.983Z,99.90
2019-04-27T09:16:00.791Z,99.90
2019-04-27T09:18:32.698Z,99.90
2019-04-27T09:21:04.151Z,99.90
2019-04-27T09:23:35.399Z,99.90
2019-04-27T09:26:06.682Z,99.90
2019-04-27T09:28:38.806Z,99.90
2019-04-27T09:31:10.195Z,99.90
2019-04-27T09:33:41.198Z,99.90
2019-04-27T09:36:12.423Z,99.90
2019-04-27T09:38:43.340Z,99.90
2019-04-27T09:41:14.488Z,99.90
2019-04-27T09:43:46.609Z,99.90
2019-04-27T09:46:17.730Z,99.90
2019-04-27T09:48:49.171Z,99.90
2019-04-27T09:51:20.331Z,99.90
2019-04-27T09:53:51.536Z,99.90
2019-04-27T09:56:22.459Z,99.90
2019-04-27T09:58:57.049Z,99.90
2019-04-27T10:01:28.841Z,99.90
2019-04-27T10:03:59.627Z,99.90
2019-04-27T10:06:30.760Z,99.90
2019-04-27T10:09:01.931Z,99.90
2019-04-27T10:11:35.673Z,99.90
2019-04-27T10:14:07.322Z,99.90
2019-04-27T10:16:38.487Z,99.90
2019-04-27T10:19:09.704Z,99.90
2019-04-27T10:21:41.089Z,99.90
2019-04-27T10:24:12.348Z,99.90
2019-04-27T10:26:43.840Z,99.90
2019-04-27T10:29:16.188Z,99.90
2019-04-27T10:31:48.241Z,99.90
2019-04-27T10:34:20.567Z,99.90
2019-04-27T10:36:52.266Z,99.90
2019-04-27T10:39:27.800Z,99.90
2019-04-27T10:41:59.411Z,99.80
2019-04-27T10:44:31.529Z,99.90
2019-04-27T10:47:03.314Z,99.90
2019-04-27T10:49:34.796Z,99.40
2019-04-27T10:52:06.545Z,99.30
2019-04-27T10:54:37.752Z,97.80
2019-04-27T10:57:09.013Z,96.40
2019-04-27T10:59:40.442Z,95.80
2019-04-27T11:02:11.804Z,95.60
2019-04-27T11:05:11.032Z,98.20
2019-04-27T11:07:42.244Z,96.50
2019-04-27T11:10:16.288Z,95.30
2019-04-27T11:12:47.905Z,93.10
2019-04-27T11:15:19.315Z,94.00
2019-04-27T11:17:50.420Z,94.10
2019-04-27T11:20:22.420Z,94.80
2019-04-27T11:23:06.175Z,95.30
2019-04-27T11:25:26.475Z,94.70
2019-04-27T11:27:58.027Z,93.40
2019-04-27T11:30:30.382Z,93.40
2019-04-27T11:33:01.616Z,93.70
2019-04-27T11:35:46.843Z,93.90
2019-04-27T11:38:18.275Z,93.40
2019-04-27T11:40:50.192Z,93.50
2019-04-27T11:43:21.466Z,92.80
2019-04-27T11:45:52.758Z,93.00
2019-04-27T11:48:23.724Z,92.60
2019-04-27T11:50:56.063Z,93.20
2019-04-27T11:53:28.798Z,93.50
2019-04-27T11:56:00.084Z,93.40
2019-04-27T11:58:31.071Z,92.90
2019-04-27T12:01:02.216Z,92.70
2019-04-27T12:03:33.498Z,92.40
2019-04-27T12:06:04.562Z,92.80
2019-04-27T12:08:36.588Z,92.50
2019-04-27T12:11:08.003Z,91.90
2019-04-27T12:13:39.315Z,92.40
2019-04-27T12:16:10.484Z,92.10
2019-04-27T12:18:41.651Z,91.40
2019-04-27T12:21:12.838Z,91.10
2019-04-27T12:23:44.054Z,91.40
2019-04-27T12:26:46.179Z,91.50
2019-04-27T12:29:20.247Z,91.50
2019-04-27T12:31:51.605Z,91.50
2019-04-27T12:34:22.511Z,90.90
2019-04-27T12:36:53.655Z,91.30
2019-04-27T12:39:26.784Z,91.20
2019-04-27T12:41:57.808Z,91.40
2019-04-27T12:44:29.115Z,91.80
2019-04-27T12:47:02.557Z,92.60
2019-04-27T12:49:33.227Z,93.60
2019-04-27T12:52:05.869Z,93.70
2019-04-27T12:54:43.827Z,92.40
2019-04-27T12:57:33.828Z,93.30
2019-04-27T13:00:30.760Z,93.00
2019-04-27T13:03:02.118Z,92.30
2019-04-27T13:05:35.896Z,92.10
2019-04-27T13:08:06.987Z,92.40
2019-04-27T13:10:38.219Z,91.80
2019-04-27T13:13:10.391Z,92.50
2019-04-27T13:15:41.303Z,93.00
2019-04-27T13:18:12.554Z,94.60
2019-04-27T13:20:43.455Z,96.60
2019-04-27T13:23:14.382Z,97.70
2019-04-27T13:25:51.201Z,99.30
2019-04-27T13:28:23.087Z,99.40
2019-04-27T13:30:55.859Z,99.10
2019-04-27T13:33:27.196Z,99.90
2019-04-27T13:35:58.091Z,98.70
2019-04-27T13:38:29.087Z,99.00
2019-04-27T13:41:07.863Z,99.20
2019-04-27T13:43:39.706Z,99.10
2019-04-27T13:46:25.990Z,98.90
2019-04-27T13:49:22.651Z,98.40
2019-04-27T13:52:07.643Z,99.20
2019-04-27T13:54:38.823Z,99.00
2019-04-27T13:57:10.168Z,99.90
2019-04-27T13:59:41.870Z,99.50
2019-04-27T14:02:13.599Z,99.90
2019-04-27T14:04:44.699Z,99.30
2019-04-27T14:07:15.600Z,99.50
2019-04-27T14:09:48.611Z,99.90
2019-04-27T14:12:21.552Z,99.90
2019-04-27T14:14:56.744Z,99.90
2019-04-27T14:17:29.355Z,99.90
2019-04-27T14:20:01.159Z,99.90
2019-04-27T14:22:32.070Z,99.90
2019-04-27T14:25:03.422Z,99.90
2019-04-27T14:27:40.690Z,99.90
2019-04-27T14:30:14.410Z,99.90
2019-04-27T14:32:45.378Z,99.90
2019-04-27T14:35:18.136Z,99.90
2019-04-27T14:37:50.397Z,99.90
2019-04-27T14:40:22.583Z,99.90
2019-04-27T14:42:53.888Z,99.90
2019-04-27T14:45:26.278Z,99.90
2019-04-27T14:47:58.238Z,99.90
2019-04-27T14:50:30.651Z,99.90
2019-04-27T14:53:01.575Z,99.90
2019-04-27T14:55:32.980Z,99.90
2019-04-27T14:58:04.201Z,99.90
2019-04-27T15:00:35.583Z,99.90
2019-04-27T15:03:06.738Z,99.90
2019-04-27T15:05:37.743Z,99.90
2019-04-27T15:08:09.821Z,99.90
2019-04-27T15:10:40.899Z,99.90
2019-04-27T15:13:11.815Z,99.90
2019-04-27T15:15:42.971Z,99.90
2019-04-27T15:18:14.212Z,99.90
2019-04-27T15:20:46.698Z,99.90
2019-04-27T15:23:19.903Z,99.90
2019-04-27T15:25:50.678Z,99.90
2019-04-27T15:28:25.731Z,99.90
2019-04-27T15:31:23.676Z,99.90
2019-04-27T15:34:17.095Z,99.90
2019-04-27T15:36:56.874Z,99.90
2019-04-27T15:39:48.536Z,99.90
2019-04-27T15:42:28.331Z,99.90
2019-04-27T15:45:01.988Z,99.90
2019-04-27T15:47:34.380Z,99.90
2019-04-27T15:50:07.977Z,99.90
2019-04-27T15:52:39.244Z,99.90
2019-04-27T15:55:31.238Z,99.90
2019-04-27T15:57:46.888Z,99.90
2019-04-27T16:00:22.455Z,99.80
2019-04-27T16:02:53.751Z,99.90
2019-04-27T16:05:28.712Z,99.90
2019-04-27T16:07:59.220Z,99.90
2019-04-27T16:10:32.671Z,99.60
2019-04-27T16:13:07.072Z,99.60
2019-04-27T16:15:38.225Z,99.60
2019-04-27T16:18:10.185Z,98.60
2019-04-27T16:20:41.071Z,97.20
2019-04-27T16:23:18.202Z,97.70
2019-04-27T16:25:51.555Z,97.20
2019-04-27T16:28:23.175Z,97.20
2019-04-27T16:30:54.343Z,97.30
2019-04-27T16:33:28.735Z,97.80
2019-04-27T16:36:06.423Z,98.10
2019-04-27T16:38:43.081Z,97.70
2019-04-27T16:41:15.213Z,98.60
2019-04-27T16:43:49.012Z,99.40
2019-04-27T16:46:21.740Z,99.50
2019-04-27T16:48:52.848Z,99.90
2019-04-27T16:51:24.263Z,99.90
2019-04-27T16:53:55.571Z,99.90
2019-04-27T16:56:28.009Z,99.90
2019-04-27T16:59:17.674Z,99.90
2019-04-27T17:01:34.223Z,99.90
2019-04-27T17:04:06.347Z,99.90
2019-04-27T17:06:40.766Z,99.90
2019-04-27T17:09:11.694Z,99.90
2019-04-27T17:11:50.172Z,99.90
2019-04-27T17:14:49.070Z,99.90
2019-04-27T17:17:30.331Z,99.90
2019-04-27T17:20:02.774Z,99.90
2019-04-27T17:22:33.766Z,99.90
2019-04-27T17:25:05.175Z,99.90
2019-04-27T17:27:48.239Z,99.90
2019-04-27T17:30:19.592Z,99.90
2019-04-27T17:33:01.302Z,99.90
2019-04-27T17:35:34.839Z,99.90
2019-04-27T17:38:08.701Z,99.90
2019-04-27T17:40:39.009Z,99.90
2019-04-27T17:43:10.589Z,99.90
2019-04-27T17:45:41.638Z,99.90
2019-04-27T17:48:14.324Z,99.90
2019-04-27T17:50:45.596Z,99.90
2019-04-27T17:53:18.713Z,99.90
2019-04-27T17:55:49.932Z,99.90
2019-04-27T17:58:21.311Z,99.90
2019-04-27T18:00:52.608Z,99.90
2019-04-27T18:03:23.937Z,99.90
2019-04-27T18:05:54.919Z,99.90
2019-04-27T18:08:25.819Z,99.90
2019-04-27T18:11:00.188Z,99.90
2019-04-27T18:13:30.608Z,99.90
2019-04-27T18:16:01.927Z,99.90
2019-04-27T18:18:48.665Z,99.90
2019-04-27T18:21:25.546Z,99.90
2019-04-27T18:24:01.550Z,99.90
2019-04-27T18:26:49.313Z,99.90
2019-04-27T18:29:18.474Z,99.90
2019-04-27T18:31:53.412Z,99.90
2019-04-27T18:34:22.727Z,99.90
2019-04-27T18:36:54.063Z,99.90
2019-04-27T18:39:25.325Z,99.90
2019-04-27T18:41:58.545Z,99.90
2019-04-27T18:44:31.923Z,99.90
2019-04-27T18:47:03.030Z,99.90
2019-04-27T18:49:53.711Z,99.90
2019-04-27T18:52:47.501Z,99.90
2019-04-27T18:55:17.240Z,99.90
2019-04-27T18:57:50.853Z,99.90
2019-04-27T19:00:22.021Z,99.90
2019-04-27T19:02:53.252Z,99.90
2019-04-27T19:05:37.321Z,99.90
2019-04-27T19:07:58.441Z,99.90
2019-04-27T19:10:29.718Z,99.90
2019-04-27T19:13:01.144Z,99.90
2019-04-27T19:15:32.519Z,99.90
2019-04-27T19:18:03.600Z,99.90
2019-04-27T19:20:34.848Z,99.90
2019-04-27T19:23:06.195Z,99.90
2019-04-27T19:25:55.483Z,99.90
2019-04-27T19:28:49.305Z,99.90
2019-04-27T19:31:25.460Z,99.90
2019-04-27T19:33:56.607Z,99.90
2019-04-27T19:36:28.289Z,99.90
2019-04-27T19:39:00.895Z,99.90
2019-04-27T19:41:33.659Z,99.90
2019-04-27T19:44:05.004Z,99.90
2019-04-27T19:46:36.173Z,99.90
2019-04-27T19:49:08.779Z,99.90
2019-04-27T19:51:40.788Z,99.90
2019-04-27T19:54:12.075Z,99.90
2019-04-27T19:56:43.139Z,99.90
2019-04-27T19:59:19.933Z,99.90
2019-04-27T20:01:52.739Z,99.90
2019-04-27T20:04:32.303Z,99.90
2019-04-27T20:07:03.708Z,99.90
2019-04-27T20:09:49.989Z,99.90
2019-04-27T20:12:21.428Z,99.90
2019-04-27T20:14:58.977Z,99.90
2019-04-27T20:17:31.896Z,99.90
2019-04-27T20:20:03.911Z,99.90
2019-04-27T20:22:35.346Z,99.90
2019-04-27T20:25:06.607Z,99.90
2019-04-27T20:27:46.070Z,99.90
2019-04-27T20:30:11.411Z,99.90
2019-04-27T20:32:44.213Z,99.90
2019-04-27T20:35:15.464Z,99.90
2019-04-27T20:37:46.619Z,99.90
2019-04-27T20:40:17.791Z,99.90
2019-04-27T20:42:51.585Z,99.90
2019-04-27T20:45:22.940Z,99.90
2019-04-27T20:47:53.839Z,99.90
2019-04-27T20:50:25.108Z,99.90
2019-04-27T20:52:57.599Z,99.90
2019-04-27T20:55:28.806Z,99.90
2019-04-27T20:58:02.550Z,99.90
2019-04-27T21:00:33.864Z,99.90
2019-04-27T21:03:23.038Z,99.90
2019-04-27T21:06:16.559Z,99.90
2019-04-27T21:08:47.506Z,99.90
2019-04-27T21:11:18.414Z,99.90
2019-04-27T21:13:51.662Z,99.90
2019-04-27T21:16:22.726Z,99.90
2019-04-27T21:18:54.149Z,99.90
2019-04-27T21:21:25.545Z,99.90
2019-04-27T21:23:56.423Z,99.90
2019-04-27T21:26:27.339Z,99.90
2019-04-27T21:28:58.815Z,99.90
2019-04-27T21:31:31.646Z,99.90
2019-04-27T21:34:04.166Z,99.90
2019-04-27T21:36:35.393Z,99.90
2019-04-27T21:39:07.443Z,99.90
2019-04-27T21:41:41.333Z,99.90
2019-04-27T21:44:12.696Z,99.90
2019-04-27T21:46:43.843Z,99.90
2019-04-27T21:49:19.018Z,99.90
2019-04-27T21:52:07.204Z,99.90
2019-04-27T21:54:38.730Z,99.90
2019-04-27T21:57:13.279Z,99.90
2019-04-27T21:59:44.395Z,99.90
2019-04-27T22:02:15.909Z,99.90
2019-04-27T22:04:47.112Z,99.90
2019-04-27T22:07:18.094Z,99.90
2019-04-27T22:09:49.083Z,99.90
2019-04-27T22:12:21.350Z,99.90
2019-04-27T22:14:53.094Z,99.90
2019-04-27T22:17:24.347Z,99.90
2019-04-27T22:19:58.139Z,99.90
2019-04-27T22:22:36.406Z,99.90
2019-04-27T22:25:11.613Z,99.90
2019-04-27T22:27:42.767Z,99.90
2019-04-27T22:30:13.812Z,99.90
2019-04-27T22:32:44.956Z,99.90
2019-04-27T22:35:16.518Z,99.90
2019-04-27T22:37:47.732Z,99.90
2019-04-27T22:40:34.921Z,99.90
2019-04-27T22:43:24.187Z,99.90
2019-04-27T22:45:55.687Z,99.90
2019-04-27T22:48:27.063Z,99.90
2019-04-27T22:50:58.200Z,99.90
2019-04-27T22:53:30.628Z,99.90
2019-04-27T22:56:16.460Z,99.90
2019-04-27T22:59:06.852Z,99.90
2019-04-27T23:01:51.242Z,99.90
2019-04-27T23:04:27.368Z,99.90
2019-04-27T23:06:58.504Z,99.90
2019-04-27T23:09:29.919Z,99.90
2019-04-27T23:12:01.811Z,99.90
2019-04-27T23:14:32.887Z,99.90
2019-04-27T23:17:16.582Z,99.90
2019-04-27T23:19:47.727Z,99.90
2019-04-27T23:22:18.863Z,99.90
2019-04-27T23:24:51.804Z,99.90
2019-04-27T23:27:22.863Z,99.90
2019-04-27T23:29:54.003Z,99.90
2019-04-27T23:32:32.027Z,99.90
2019-04-27T23:35:02.938Z,99.90
2019-04-27T23:37:34.140Z,99.90
2019-04-27T23:40:05.687Z,99.90
2019-04-27T23:42:36.839Z,99.90
2019-04-27T23:45:08.720Z,99.90
2019-04-27T23:47:39.650Z,99.90
2019-04-27T23:50:12.227Z,99.90
2019-04-27T23:53:02.572Z,99.90
2019-04-27T23:55:34.606Z,99.90
2019-04-27T23:58:05.809Z,99.90
